sensor_id;sensor_type;location;lat;lon;timestamp;temperature;humidity
42617;DHT22;28250;52.320;0.360;2024-01-25T00:00:28;3.30;99.90
42617;DHT22;28250;52.320;0.360;2024-01-25T00:03:01;3.20;99.90
42617;DHT22;28250;52.320;0.360;2024-01-25T00:05:35;3.20;99.90
42617;DHT22;28250;52.320;0.360;2024-01-25T00:08:06;3.20;99.90
42617;DHT22;28250;52.320;0.360;2024-01-25T00:10:36;3.30;99.90
42617;DHT22;28250;52.320;0.360;2024-01-25T00:13:07;3.40;99.90
42617;DHT22;28250;52.320;0.360;2024-01-25T00:15:38;3.30;99.90
42617;DHT22;28250;52.320;0.360;2024-01-25T00:18:08;3.40;99.90
42617;DHT22;28250;52.320;0.360;2024-01-25T00:20:39;3.40;99.90
42617;DHT22;28250;52.320;0.360;2024-01-25T00:23:10;3.40;99.90
42617;DHT22;28250;52.320;0.360;2024-01-25T00:25:40;3.20;99.90
42617;DHT22;28250;52.320;0.360;2024-01-25T00:28:11;3.10;99.90
42617;DHT22;28250;52.320;0.360;2024-01-25T00:30:44;3.00;99.90
42617;DHT22;28250;52.320;0.360;2024-01-25T00:33:19;2.90;99.90
42617;DHT22;28250;52.320;0.360;2024-01-25T00:35:52;2.90;99.90
42617;DHT22;28250;52.320;0.360;2024-01-25T00:38:26;3.00;99.90
42617;DHT22;28250;52.320;0.360;2024-01-25T00:40:57;3.00;99.90
42617;DHT22;28250;52.320;0.360;2024-01-25T00:43:29;3.00;99.90
42617;DHT22;28250;52.320;0.360;2024-01-25T00:46:00;3.10;99.90
42617;DHT22;28250;52.320;0.360;2024-01-25T00:48:31;3.00;99.90
42617;DHT22;28250;52.320;0.360;2024-01-25T00:51:11;2.90;99.90
42617;DHT22;28250;52.320;0.360;2024-01-25T00:53:47;2.90;99.90
42617;DHT22;28250;52.320;0.360;2024-01-25T00:56:19;2.80;99.90
42617;DHT22;28250;52.320;0.360;2024-01-25T00:58:48;2.90;99.90
42617;DHT22;28250;52.320;0.360;2024-01-25T01:01:15;2.90;99.90
42617;DHT22;28250;52.320;0.360;2024-01-25T01:03:41;2.90;99.90
42617;DHT22;28250;52.320;0.360;2024-01-25T01:06:08;3.00;99.90
42617;DHT22;28250;52.320;0.360;2024-01-25T01:08:35;3.00;99.90
42617;DHT22;28250;52.320;0.360;2024-01-25T01:11:02;2.90;99.90
42617;DHT22;28250;52.320;0.360;2024-01-25T01:13:28;2.90;99.90
42617;DHT22;28250;52.320;0.360;2024-01-25T01:15:54;3.00;99.90
42617;DHT22;28250;52.320;0.360;2024-01-25T01:18:20;3.20;99.90
42617;DHT22;28250;52.320;0.360;2024-01-25T01:20:48;3.00;99.90
42617;DHT22;28250;52.320;0.360;2024-01-25T01:23:14;2.80;99.90
42617;DHT22;28250;52.320;0.360;2024-01-25T01:25:40;2.70;99.90
42617;DHT22;28250;52.320;0.360;2024-01-25T01:28:06;2.70;99.90
42617;DHT22;28250;52.320;0.360;2024-01-25T01:30:32;2.90;99.90
42617;DHT22;28250;52.320;0.360;2024-01-25T01:32:58;3.20;99.90
42617;DHT22;28250;52.320;0.360;2024-01-25T01:35:24;3.20;99.90
42617;DHT22;28250;52.320;0.360;2024-01-25T01:37:50;3.10;99.90
42617;DHT22;28250;52.320;0.360;2024-01-25T01:40:16;3.10;99.90
42617;DHT22;28250;52.320;0.360;2024-01-25T01:42:42;3.10;99.90
42617;DHT22;28250;52.320;0.360;2024-01-25T01:45:11;3.00;99.90
42617;DHT22;28250;52.320;0.360;2024-01-25T01:47:38;3.00;99.90
42617;DHT22;28250;52.320;0.360;2024-01-25T01:50:06;3.00;99.90
42617;DHT22;28250;52.320;0.360;2024-01-25T01:52:32;3.00;99.90
42617;DHT22;28250;52.320;0.360;2024-01-25T01:54:58;3.00;99.90
42617;DHT22;28250;52.320;0.360;2024-01-25T01:57:25;2.80;99.90
42617;DHT22;28250;52.320;0.360;2024-01-25T01:59:52;3.00;99.90
42617;DHT22;28250;52.320;0.360;2024-01-25T02:02:19;3.00;99.90
42617;DHT22;28250;52.320;0.360;2024-01-25T02:04:45;2.90;99.90
42617;DHT22;28250;52.320;0.360;2024-01-25T02:07:11;3.10;99.90
42617;DHT22;28250;52.320;0.360;2024-01-25T02:09:37;3.20;99.90
42617;DHT22;28250;52.320;0.360;2024-01-25T02:12:04;3.20;99.90
42617;DHT22;28250;52.320;0.360;2024-01-25T02:14:31;3.20;99.90
42617;DHT22;28250;52.320;0.360;2024-01-25T02:16:57;3.10;99.90
42617;DHT22;28250;52.320;0.360;2024-01-25T02:19:23;3.00;99.90
42617;DHT22;28250;52.320;0.360;2024-01-25T02:21:51;2.90;99.90
42617;DHT22;28250;52.320;0.360;2024-01-25T02:24:19;3.20;99.90
42617;DHT22;28250;52.320;0.360;2024-01-25T02:26:45;2.90;99.90
42617;DHT22;28250;52.320;0.360;2024-01-25T02:29:11;3.00;99.90
42617;DHT22;28250;52.320;0.360;2024-01-25T02:31:37;3.30;99.90
42617;DHT22;28250;52.320;0.360;2024-01-25T02:34:03;3.40;99.90
42617;DHT22;28250;52.320;0.360;2024-01-25T02:36:29;3.50;99.90
42617;DHT22;28250;52.320;0.360;2024-01-25T02:38:55;3.40;99.90
42617;DHT22;28250;52.320;0.360;2024-01-25T02:41:21;3.40;99.90
42617;DHT22;28250;52.320;0.360;2024-01-25T02:43:47;3.40;99.90
42617;DHT22;28250;52.320;0.360;2024-01-25T02:46:13;3.40;99.90
42617;DHT22;28250;52.320;0.360;2024-01-25T02:48:39;3.50;99.90
42617;DHT22;28250;52.320;0.360;2024-01-25T02:51:05;3.60;99.90
42617;DHT22;28250;52.320;0.360;2024-01-25T02:53:31;3.60;99.90
42617;DHT22;28250;52.320;0.360;2024-01-25T02:55:57;3.50;99.90
42617;DHT22;28250;52.320;0.360;2024-01-25T02:58:23;3.50;99.90
42617;DHT22;28250;52.320;0.360;2024-01-25T03:00:49;3.50;99.90
42617;DHT22;28250;52.320;0.360;2024-01-25T03:03:16;3.50;99.90
42617;DHT22;28250;52.320;0.360;2024-01-25T03:05:42;3.50;99.90
42617;DHT22;28250;52.320;0.360;2024-01-25T03:08:08;3.60;99.90
42617;DHT22;28250;52.320;0.360;2024-01-25T03:10:34;3.50;99.90
42617;DHT22;28250;52.320;0.360;2024-01-25T03:13:00;3.50;99.90
42617;DHT22;28250;52.320;0.360;2024-01-25T03:15:26;3.30;99.90
42617;DHT22;28250;52.320;0.360;2024-01-25T03:17:52;3.30;99.90
42617;DHT22;28250;52.320;0.360;2024-01-25T03:20:18;3.50;99.90
42617;DHT22;28250;52.320;0.360;2024-01-25T03:22:44;3.30;99.90
42617;DHT22;28250;52.320;0.360;2024-01-25T03:25:10;3.30;99.90
42617;DHT22;28250;52.320;0.360;2024-01-25T03:27:36;3.40;99.90
42617;DHT22;28250;52.320;0.360;2024-01-25T03:30:03;3.40;99.90
42617;DHT22;28250;52.320;0.360;2024-01-25T03:32:33;3.40;99.90
42617;DHT22;28250;52.320;0.360;2024-01-25T03:34:59;3.50;99.90
42617;DHT22;28250;52.320;0.360;2024-01-25T03:37:25;3.30;99.90
42617;DHT22;28250;52.320;0.360;2024-01-25T03:39:51;3.20;99.90
42617;DHT22;28250;52.320;0.360;2024-01-25T03:42:17;3.20;99.90
42617;DHT22;28250;52.320;0.360;2024-01-25T03:44:43;3.40;99.90
42617;DHT22;28250;52.320;0.360;2024-01-25T03:47:11;3.50;99.90
42617;DHT22;28250;52.320;0.360;2024-01-25T03:49:37;3.50;99.90
42617;DHT22;28250;52.320;0.360;2024-01-25T03:52:04;3.60;99.90
42617;DHT22;28250;52.320;0.360;2024-01-25T03:54:31;3.50;99.90
42617;DHT22;28250;52.320;0.360;2024-01-25T03:56:57;3.60;99.90
42617;DHT22;28250;52.320;0.360;2024-01-25T03:59:23;3.80;99.90
42617;DHT22;28250;52.320;0.360;2024-01-25T04:01:49;3.80;99.90
42617;DHT22;28250;52.320;0.360;2024-01-25T04:04:15;3.60;99.90
42617;DHT22;28250;52.320;0.360;2024-01-25T04:06:42;3.50;99.90
42617;DHT22;28250;52.320;0.360;2024-01-25T04:09:09;3.50;99.90
42617;DHT22;28250;52.320;0.360;2024-01-25T04:11:36;3.50;99.90
42617;DHT22;28250;52.320;0.360;2024-01-25T04:14:04;3.50;99.90
42617;DHT22;28250;52.320;0.360;2024-01-25T04:16:30;3.50;99.90
42617;DHT22;28250;52.320;0.360;2024-01-25T04:18:57;3.50;99.90
42617;DHT22;28250;52.320;0.360;2024-01-25T04:21:23;3.50;99.90
42617;DHT22;28250;52.320;0.360;2024-01-25T04:23:49;3.50;99.90
42617;DHT22;28250;52.320;0.360;2024-01-25T04:26:15;3.40;99.90
42617;DHT22;28250;52.320;0.360;2024-01-25T04:28:42;3.40;99.90
42617;DHT22;28250;52.320;0.360;2024-01-25T04:31:08;3.40;99.90
42617;DHT22;28250;52.320;0.360;2024-01-25T04:33:34;3.40;99.90
42617;DHT22;28250;52.320;0.360;2024-01-25T04:36:01;3.40;99.90
42617;DHT22;28250;52.320;0.360;2024-01-25T04:38:27;3.30;99.90
42617;DHT22;28250;52.320;0.360;2024-01-25T04:40:53;3.20;99.90
42617;DHT22;28250;52.320;0.360;2024-01-25T04:43:19;3.30;99.90
42617;DHT22;28250;52.320;0.360;2024-01-25T04:45:45;3.40;99.90
42617;DHT22;28250;52.320;0.360;2024-01-25T04:48:11;3.50;99.90
42617;DHT22;28250;52.320;0.360;2024-01-25T04:50:37;3.50;99.90
42617;DHT22;28250;52.320;0.360;2024-01-25T04:53:04;3.50;99.90
42617;DHT22;28250;52.320;0.360;2024-01-25T04:55:30;3.60;99.90
42617;DHT22;28250;52.320;0.360;2024-01-25T04:57:56;3.70;99.90
42617;DHT22;28250;52.320;0.360;2024-01-25T05:00:22;3.50;99.90
42617;DHT22;28250;52.320;0.360;2024-01-25T05:02:49;3.40;99.90
42617;DHT22;28250;52.320;0.360;2024-01-25T05:05:16;3.40;99.90
42617;DHT22;28250;52.320;0.360;2024-01-25T05:07:45;3.30;99.90
42617;DHT22;28250;52.320;0.360;2024-01-25T05:10:11;3.30;99.90
42617;DHT22;28250;52.320;0.360;2024-01-25T05:12:37;3.50;99.90
42617;DHT22;28250;52.320;0.360;2024-01-25T05:15:03;3.70;99.90
42617;DHT22;28250;52.320;0.360;2024-01-25T05:17:30;3.90;99.90
42617;DHT22;28250;52.320;0.360;2024-01-25T05:19:56;3.80;99.90
42617;DHT22;28250;52.320;0.360;2024-01-25T05:22:22;3.70;99.90
42617;DHT22;28250;52.320;0.360;2024-01-25T05:24:49;3.90;99.90
42617;DHT22;28250;52.320;0.360;2024-01-25T05:27:15;3.80;99.90
42617;DHT22;28250;52.320;0.360;2024-01-25T05:29:41;3.80;99.90
42617;DHT22;28250;52.320;0.360;2024-01-25T05:32:07;3.80;99.90
42617;DHT22;28250;52.320;0.360;2024-01-25T05:34:33;3.70;99.90
42617;DHT22;28250;52.320;0.360;2024-01-25T05:36:59;3.90;99.90
42617;DHT22;28250;52.320;0.360;2024-01-25T05:39:25;4.00;99.90
42617;DHT22;28250;52.320;0.360;2024-01-25T05:41:51;4.20;99.90
42617;DHT22;28250;52.320;0.360;2024-01-25T05:44:17;4.30;99.90
42617;DHT22;28250;52.320;0.360;2024-01-25T05:46:43;4.40;99.90
42617;DHT22;28250;52.320;0.360;2024-01-25T05:49:09;4.50;99.90
42617;DHT22;28250;52.320;0.360;2024-01-25T05:51:36;4.40;99.90
42617;DHT22;28250;52.320;0.360;2024-01-25T05:54:02;4.40;99.90
42617;DHT22;28250;52.320;0.360;2024-01-25T05:56:28;4.40;99.90
42617;DHT22;28250;52.320;0.360;2024-01-25T05:58:54;4.40;99.90
42617;DHT22;28250;52.320;0.360;2024-01-25T06:01:20;4.40;99.90
42617;DHT22;28250;52.320;0.360;2024-01-25T06:03:46;4.50;99.90
42617;DHT22;28250;52.320;0.360;2024-01-25T06:06:12;4.80;99.90
42617;DHT22;28250;52.320;0.360;2024-01-25T06:08:38;5.00;99.90
42617;DHT22;28250;52.320;0.360;2024-01-25T06:11:04;5.30;99.90
42617;DHT22;28250;52.320;0.360;2024-01-25T06:13:31;5.30;99.90
42617;DHT22;28250;52.320;0.360;2024-01-25T06:15:57;5.40;99.90
42617;DHT22;28250;52.320;0.360;2024-01-25T06:18:24;5.30;99.90
42617;DHT22;28250;52.320;0.360;2024-01-25T06:20:50;5.30;99.90
42617;DHT22;28250;52.320;0.360;2024-01-25T06:23:16;5.30;99.90
42617;DHT22;28250;52.320;0.360;2024-01-25T06:25:42;5.40;99.90
42617;DHT22;28250;52.320;0.360;2024-01-25T06:28:08;5.60;99.90
42617;DHT22;28250;52.320;0.360;2024-01-25T06:30:34;5.50;99.90
42617;DHT22;28250;52.320;0.360;2024-01-25T06:33:00;5.60;99.90
42617;DHT22;28250;52.320;0.360;2024-01-25T06:35:26;5.60;99.90
42617;DHT22;28250;52.320;0.360;2024-01-25T06:37:52;5.70;99.90
42617;DHT22;28250;52.320;0.360;2024-01-25T06:40:18;5.80;99.90
42617;DHT22;28250;52.320;0.360;2024-01-25T06:42:44;5.80;99.90
42617;DHT22;28250;52.320;0.360;2024-01-25T06:45:11;5.80;99.90
42617;DHT22;28250;52.320;0.360;2024-01-25T06:47:37;5.80;99.90
42617;DHT22;28250;52.320;0.360;2024-01-25T06:50:03;5.90;99.90
42617;DHT22;28250;52.320;0.360;2024-01-25T06:52:29;5.90;99.90
42617;DHT22;28250;52.320;0.360;2024-01-25T06:54:55;6.00;99.90
42617;DHT22;28250;52.320;0.360;2024-01-25T06:57:22;6.10;99.90
42617;DHT22;28250;52.320;0.360;2024-01-25T06:59:48;6.20;99.90
42617;DHT22;28250;52.320;0.360;2024-01-25T07:02:14;6.20;99.90
42617;DHT22;28250;52.320;0.360;2024-01-25T07:04:40;6.30;99.90
42617;DHT22;28250;52.320;0.360;2024-01-25T07:07:06;6.30;99.90
42617;DHT22;28250;52.320;0.360;2024-01-25T07:09:33;6.20;99.90
42617;DHT22;28250;52.320;0.360;2024-01-25T07:11:59;6.20;99.90
42617;DHT22;28250;52.320;0.360;2024-01-25T07:14:25;6.30;99.90
42617;DHT22;28250;52.320;0.360;2024-01-25T07:16:51;6.30;99.90
42617;DHT22;28250;52.320;0.360;2024-01-25T07:19:17;6.30;99.90
42617;DHT22;28250;52.320;0.360;2024-01-25T07:21:43;6.40;99.90
42617;DHT22;28250;52.320;0.360;2024-01-25T07:24:11;6.40;99.90
42617;DHT22;28250;52.320;0.360;2024-01-25T07:26:38;6.40;99.90
42617;DHT22;28250;52.320;0.360;2024-01-25T07:29:04;6.50;99.90
42617;DHT22;28250;52.320;0.360;2024-01-25T07:31:30;6.50;99.90
42617;DHT22;28250;52.320;0.360;2024-01-25T07:33:56;6.60;99.90
42617;DHT22;28250;52.320;0.360;2024-01-25T07:36:22;6.70;99.90
42617;DHT22;28250;52.320;0.360;2024-01-25T07:38:48;6.70;99.90
42617;DHT22;28250;52.320;0.360;2024-01-25T07:41:15;6.70;99.90
42617;DHT22;28250;52.320;0.360;2024-01-25T07:43:41;6.70;99.90
42617;DHT22;28250;52.320;0.360;2024-01-25T07:46:09;6.80;99.90
42617;DHT22;28250;52.320;0.360;2024-01-25T07:48:36;6.70;99.90
42617;DHT22;28250;52.320;0.360;2024-01-25T07:51:03;6.70;99.90
42617;DHT22;28250;52.320;0.360;2024-01-25T07:53:37;6.80;99.90
42617;DHT22;28250;52.320;0.360;2024-01-25T07:56:05;6.70;99.90
42617;DHT22;28250;52.320;0.360;2024-01-25T07:58:32;6.70;99.90
42617;DHT22;28250;52.320;0.360;2024-01-25T08:00:58;6.80;99.90
42617;DHT22;28250;52.320;0.360;2024-01-25T08:03:24;6.80;99.90
42617;DHT22;28250;52.320;0.360;2024-01-25T08:05:50;6.70;99.90
42617;DHT22;28250;52.320;0.360;2024-01-25T08:08:17;6.80;99.90
42617;DHT22;28250;52.320;0.360;2024-01-25T08:10:43;6.80;99.90
42617;DHT22;28250;52.320;0.360;2024-01-25T08:13:11;6.80;99.90
42617;DHT22;28250;52.320;0.360;2024-01-25T08:15:37;6.90;99.90
42617;DHT22;28250;52.320;0.360;2024-01-25T08:18:04;6.80;99.90
42617;DHT22;28250;52.320;0.360;2024-01-25T08:20:30;6.90;99.90
42617;DHT22;28250;52.320;0.360;2024-01-25T08:22:56;6.90;99.90
42617;DHT22;28250;52.320;0.360;2024-01-25T08:25:22;7.00;99.90
42617;DHT22;28250;52.320;0.360;2024-01-25T08:27:49;7.00;99.90
42617;DHT22;28250;52.320;0.360;2024-01-25T08:30:15;6.90;99.90
42617;DHT22;28250;52.320;0.360;2024-01-25T08:32:42;7.00;99.90
42617;DHT22;28250;52.320;0.360;2024-01-25T08:35:08;6.90;99.90
42617;DHT22;28250;52.320;0.360;2024-01-25T08:37:34;6.90;99.90
42617;DHT22;28250;52.320;0.360;2024-01-25T08:40:04;6.90;99.90
42617;DHT22;28250;52.320;0.360;2024-01-25T08:42:32;6.90;99.90
42617;DHT22;28250;52.320;0.360;2024-01-25T08:44:58;7.10;99.90
42617;DHT22;28250;52.320;0.360;2024-01-25T08:47:24;7.10;99.90
42617;DHT22;28250;52.320;0.360;2024-01-25T08:49:50;7.10;99.90
42617;DHT22;28250;52.320;0.360;2024-01-25T08:52:16;7.20;99.90
42617;DHT22;28250;52.320;0.360;2024-01-25T08:54:42;7.30;99.90
42617;DHT22;28250;52.320;0.360;2024-01-25T08:57:09;7.40;99.90
42617;DHT22;28250;52.320;0.360;2024-01-25T08:59:35;7.30;99.90
42617;DHT22;28250;52.320;0.360;2024-01-25T09:02:03;7.40;99.90
42617;DHT22;28250;52.320;0.360;2024-01-25T09:04:31;7.40;99.90
42617;DHT22;28250;52.320;0.360;2024-01-25T09:06:59;7.50;99.90
42617;DHT22;28250;52.320;0.360;2024-01-25T09:09:25;7.50;99.90
42617;DHT22;28250;52.320;0.360;2024-01-25T09:11:51;7.60;99.90
42617;DHT22;28250;52.320;0.360;2024-01-25T09:14:17;7.60;99.90
42617;DHT22;28250;52.320;0.360;2024-01-25T09:16:43;7.60;99.90
42617;DHT22;28250;52.320;0.360;2024-01-25T09:19:10;7.70;99.90
42617;DHT22;28250;52.320;0.360;2024-01-25T09:21:39;7.80;99.90
42617;DHT22;28250;52.320;0.360;2024-01-25T09:24:06;7.80;99.90
42617;DHT22;28250;52.320;0.360;2024-01-25T09:26:33;7.80;99.90
42617;DHT22;28250;52.320;0.360;2024-01-25T09:28:59;7.90;99.90
42617;DHT22;28250;52.320;0.360;2024-01-25T09:31:25;7.90;99.90
42617;DHT22;28250;52.320;0.360;2024-01-25T09:33:51;8.00;99.90
42617;DHT22;28250;52.320;0.360;2024-01-25T09:36:17;8.00;99.90
42617;DHT22;28250;52.320;0.360;2024-01-25T09:38:43;8.00;99.90
42617;DHT22;28250;52.320;0.360;2024-01-25T09:41:09;8.10;99.90
42617;DHT22;28250;52.320;0.360;2024-01-25T09:43:36;8.10;99.90
42617;DHT22;28250;52.320;0.360;2024-01-25T09:46:03;8.10;99.90
42617;DHT22;28250;52.320;0.360;2024-01-25T09:48:31;8.20;99.90
42617;DHT22;28250;52.320;0.360;2024-01-25T09:50:59;8.30;99.90
42617;DHT22;28250;52.320;0.360;2024-01-25T09:53:25;8.30;99.90
42617;DHT22;28250;52.320;0.360;2024-01-25T09:56:03;8.30;99.90
42617;DHT22;28250;52.320;0.360;2024-01-25T09:58:43;8.40;99.90
42617;DHT22;28250;52.320;0.360;2024-01-25T10:01:15;8.40;99.90
42617;DHT22;28250;52.320;0.360;2024-01-25T10:03:45;8.40;99.90
42617;DHT22;28250;52.320;0.360;2024-01-25T10:06:15;8.50;99.90
42617;DHT22;28250;52.320;0.360;2024-01-25T10:08:42;8.50;99.90
42617;DHT22;28250;52.320;0.360;2024-01-25T10:11:08;8.60;99.90
42617;DHT22;28250;52.320;0.360;2024-01-25T10:13:42;8.70;99.90
42617;DHT22;28250;52.320;0.360;2024-01-25T10:16:13;8.70;99.90
42617;DHT22;28250;52.320;0.360;2024-01-25T10:18:44;8.70;99.90
42617;DHT22;28250;52.320;0.360;2024-01-25T10:21:14;8.70;99.90
42617;DHT22;28250;52.320;0.360;2024-01-25T10:23:43;8.80;99.90
42617;DHT22;28250;52.320;0.360;2024-01-25T10:26:10;8.80;99.90
42617;DHT22;28250;52.320;0.360;2024-01-25T10:28:36;8.80;99.90
42617;DHT22;28250;52.320;0.360;2024-01-25T10:31:03;8.80;99.90
42617;DHT22;28250;52.320;0.360;2024-01-25T10:33:30;8.80;99.90
42617;DHT22;28250;52.320;0.360;2024-01-25T10:35:57;8.90;99.90
42617;DHT22;28250;52.320;0.360;2024-01-25T10:38:34;8.90;99.90
42617;DHT22;28250;52.320;0.360;2024-01-25T10:41:03;9.00;99.90
42617;DHT22;28250;52.320;0.360;2024-01-25T10:43:31;9.00;99.90
42617;DHT22;28250;52.320;0.360;2024-01-25T10:45:58;9.10;99.90
42617;DHT22;28250;52.320;0.360;2024-01-25T10:48:25;9.20;99.90
42617;DHT22;28250;52.320;0.360;2024-01-25T10:50:53;9.20;99.90
42617;DHT22;28250;52.320;0.360;2024-01-25T10:53:21;9.30;99.90
42617;DHT22;28250;52.320;0.360;2024-01-25T10:55:47;9.30;99.90
42617;DHT22;28250;52.320;0.360;2024-01-25T10:58:14;9.30;99.90
42617;DHT22;28250;52.320;0.360;2024-01-25T11:00:41;9.40;99.90
42617;DHT22;28250;52.320;0.360;2024-01-25T11:03:18;9.50;99.90
42617;DHT22;28250;52.320;0.360;2024-01-25T11:05:46;9.50;99.90
42617;DHT22;28250;52.320;0.360;2024-01-25T11:08:19;9.60;99.90
42617;DHT22;28250;52.320;0.360;2024-01-25T11:10:51;9.60;99.90
42617;DHT22;28250;52.320;0.360;2024-01-25T11:13:25;9.70;99.90
42617;DHT22;28250;52.320;0.360;2024-01-25T11:15:52;9.80;99.90
42617;DHT22;28250;52.320;0.360;2024-01-25T11:18:18;9.80;99.90
42617;DHT22;28250;52.320;0.360;2024-01-25T11:20:47;9.80;99.90
42617;DHT22;28250;52.320;0.360;2024-01-25T11:23:16;10.00;99.90
42617;DHT22;28250;52.320;0.360;2024-01-25T11:25:45;10.10;99.90
42617;DHT22;28250;52.320;0.360;2024-01-25T11:28:14;10.10;99.90
42617;DHT22;28250;52.320;0.360;2024-01-25T11:30:45;10.20;99.90
42617;DHT22;28250;52.320;0.360;2024-01-25T11:33:11;10.20;99.90
42617;DHT22;28250;52.320;0.360;2024-01-25T11:35:37;10.30;99.90
42617;DHT22;28250;52.320;0.360;2024-01-25T11:38:04;10.30;99.90
42617;DHT22;28250;52.320;0.360;2024-01-25T11:40:30;10.30;99.90
42617;DHT22;28250;52.320;0.360;2024-01-25T11:42:57;10.30;99.90
42617;DHT22;28250;52.320;0.360;2024-01-25T11:45:23;10.30;99.90
42617;DHT22;28250;52.320;0.360;2024-01-25T11:47:49;10.30;99.90
42617;DHT22;28250;52.320;0.360;2024-01-25T11:50:17;10.40;99.90
42617;DHT22;28250;52.320;0.360;2024-01-25T11:52:43;10.40;99.90
42617;DHT22;28250;52.320;0.360;2024-01-25T11:55:10;10.50;99.90
42617;DHT22;28250;52.320;0.360;2024-01-25T11:57:40;10.70;99.90
42617;DHT22;28250;52.320;0.360;2024-01-25T12:00:08;10.80;99.90
42617;DHT22;28250;52.320;0.360;2024-01-25T12:02:41;10.80;99.90
42617;DHT22;28250;52.320;0.360;2024-01-25T12:05:10;10.80;99.90
42617;DHT22;28250;52.320;0.360;2024-01-25T12:07:39;10.80;99.90
42617;DHT22;28250;52.320;0.360;2024-01-25T12:10:15;10.70;99.90
42617;DHT22;28250;52.320;0.360;2024-01-25T12:12:41;10.80;99.90
42617;DHT22;28250;52.320;0.360;2024-01-25T12:15:08;10.80;99.90
42617;DHT22;28250;52.320;0.360;2024-01-25T12:17:35;10.90;99.90
42617;DHT22;28250;52.320;0.360;2024-01-25T12:20:07;10.90;99.90
42617;DHT22;28250;52.320;0.360;2024-01-25T12:22:37;10.90;99.90
42617;DHT22;28250;52.320;0.360;2024-01-25T12:25:07;11.00;99.90
42617;DHT22;28250;52.320;0.360;2024-01-25T12:27:35;11.00;99.90
42617;DHT22;28250;52.320;0.360;2024-01-25T12:30:01;11.00;99.90
42617;DHT22;28250;52.320;0.360;2024-01-25T12:32:29;11.00;99.90
42617;DHT22;28250;52.320;0.360;2024-01-25T12:34:56;11.00;99.90
42617;DHT22;28250;52.320;0.360;2024-01-25T12:37:23;11.00;99.90
42617;DHT22;28250;52.320;0.360;2024-01-25T12:39:54;11.00;99.90
42617;DHT22;28250;52.320;0.360;2024-01-25T12:42:21;11.00;99.90
42617;DHT22;28250;52.320;0.360;2024-01-25T12:44:48;11.10;99.90
42617;DHT22;28250;52.320;0.360;2024-01-25T12:47:14;11.00;99.90
42617;DHT22;28250;52.320;0.360;2024-01-25T12:49:41;11.10;99.90
42617;DHT22;28250;52.320;0.360;2024-01-25T12:52:15;11.20;99.90
42617;DHT22;28250;52.320;0.360;2024-01-25T12:54:41;11.20;99.90
42617;DHT22;28250;52.320;0.360;2024-01-25T12:57:08;11.20;99.90
42617;DHT22;28250;52.320;0.360;2024-01-25T12:59:35;11.30;99.90
42617;DHT22;28250;52.320;0.360;2024-01-25T13:02:02;11.30;99.90
42617;DHT22;28250;52.320;0.360;2024-01-25T13:04:28;11.30;99.90
42617;DHT22;28250;52.320;0.360;2024-01-25T13:06:55;11.30;99.90
42617;DHT22;28250;52.320;0.360;2024-01-25T13:09:22;11.40;99.90
42617;DHT22;28250;52.320;0.360;2024-01-25T13:11:49;11.40;99.90
42617;DHT22;28250;52.320;0.360;2024-01-25T13:14:16;11.40;99.90
42617;DHT22;28250;52.320;0.360;2024-01-25T13:16:42;11.50;99.90
42617;DHT22;28250;52.320;0.360;2024-01-25T13:19:08;11.50;99.90
42617;DHT22;28250;52.320;0.360;2024-01-25T13:21:34;11.50;99.90
42617;DHT22;28250;52.320;0.360;2024-01-25T13:24:00;11.50;99.90
42617;DHT22;28250;52.320;0.360;2024-01-25T13:26:27;11.50;99.90
42617;DHT22;28250;52.320;0.360;2024-01-25T13:28:53;11.50;99.90
42617;DHT22;28250;52.320;0.360;2024-01-25T13:31:19;11.40;99.90
42617;DHT22;28250;52.320;0.360;2024-01-25T13:33:45;11.40;99.90
42617;DHT22;28250;52.320;0.360;2024-01-25T13:36:12;11.50;99.90
42617;DHT22;28250;52.320;0.360;2024-01-25T13:38:40;11.40;99.90
42617;DHT22;28250;52.320;0.360;2024-01-25T13:41:06;11.40;99.90
42617;DHT22;28250;52.320;0.360;2024-01-25T13:43:33;11.40;99.90
42617;DHT22;28250;52.320;0.360;2024-01-25T13:45:59;11.40;99.90
42617;DHT22;28250;52.320;0.360;2024-01-25T13:48:25;11.50;99.90
42617;DHT22;28250;52.320;0.360;2024-01-25T13:50:51;11.50;99.90
42617;DHT22;28250;52.320;0.360;2024-01-25T13:53:17;11.50;99.90
42617;DHT22;28250;52.320;0.360;2024-01-25T13:55:44;11.50;99.90
42617;DHT22;28250;52.320;0.360;2024-01-25T13:58:10;11.60;99.90
42617;DHT22;28250;52.320;0.360;2024-01-25T14:00:36;11.60;99.90
42617;DHT22;28250;52.320;0.360;2024-01-25T14:03:02;11.70;99.90
42617;DHT22;28250;52.320;0.360;2024-01-25T14:05:29;11.70;99.90
42617;DHT22;28250;52.320;0.360;2024-01-25T14:07:55;11.70;99.90
42617;DHT22;28250;52.320;0.360;2024-01-25T14:10:21;11.80;99.90
42617;DHT22;28250;52.320;0.360;2024-01-25T14:12:47;11.80;99.90
42617;DHT22;28250;52.320;0.360;2024-01-25T14:15:13;11.80;99.90
42617;DHT22;28250;52.320;0.360;2024-01-25T14:17:39;11.80;99.90
42617;DHT22;28250;52.320;0.360;2024-01-25T14:20:06;11.80;99.90
42617;DHT22;28250;52.320;0.360;2024-01-25T14:22:32;11.80;99.90
42617;DHT22;28250;52.320;0.360;2024-01-25T14:24:59;11.80;99.90
42617;DHT22;28250;52.320;0.360;2024-01-25T14:27:25;11.80;99.90
42617;DHT22;28250;52.320;0.360;2024-01-25T14:29:51;11.80;99.90
42617;DHT22;28250;52.320;0.360;2024-01-25T14:32:17;11.80;99.90
42617;DHT22;28250;52.320;0.360;2024-01-25T14:34:45;11.80;99.90
42617;DHT22;28250;52.320;0.360;2024-01-25T14:37:11;11.80;99.90
42617;DHT22;28250;52.320;0.360;2024-01-25T14:39:37;11.80;99.90
42617;DHT22;28250;52.320;0.360;2024-01-25T14:42:04;11.80;99.90
42617;DHT22;28250;52.320;0.360;2024-01-25T14:44:35;11.80;99.90
42617;DHT22;28250;52.320;0.360;2024-01-25T14:47:01;11.80;99.90
42617;DHT22;28250;52.320;0.360;2024-01-25T14:49:27;11.80;99.90
42617;DHT22;28250;52.320;0.360;2024-01-25T14:51:53;11.80;99.90
42617;DHT22;28250;52.320;0.360;2024-01-25T14:54:19;11.80;99.90
42617;DHT22;28250;52.320;0.360;2024-01-25T14:56:45;11.70;99.90
42617;DHT22;28250;52.320;0.360;2024-01-25T14:59:18;11.70;99.90
42617;DHT22;28250;52.320;0.360;2024-01-25T15:01:47;11.70;99.90
42617;DHT22;28250;52.320;0.360;2024-01-25T15:04:13;11.70;99.90
42617;DHT22;28250;52.320;0.360;2024-01-25T15:06:42;11.70;99.90
42617;DHT22;28250;52.320;0.360;2024-01-25T15:09:09;11.70;99.90
42617;DHT22;28250;52.320;0.360;2024-01-25T15:11:35;11.70;99.90
42617;DHT22;28250;52.320;0.360;2024-01-25T15:14:01;11.70;99.90
42617;DHT22;28250;52.320;0.360;2024-01-25T15:16:27;11.70;99.90
42617;DHT22;28250;52.320;0.360;2024-01-25T15:18:57;11.60;99.90
42617;DHT22;28250;52.320;0.360;2024-01-25T15:21:23;11.60;99.90
42617;DHT22;28250;52.320;0.360;2024-01-25T15:23:50;11.60;99.90
42617;DHT22;28250;52.320;0.360;2024-01-25T15:26:16;11.60;99.90
42617;DHT22;28250;52.320;0.360;2024-01-25T15:28:42;11.60;99.90
42617;DHT22;28250;52.320;0.360;2024-01-25T15:31:10;11.60;99.90
42617;DHT22;28250;52.320;0.360;2024-01-25T15:33:36;11.60;99.90
42617;DHT22;28250;52.320;0.360;2024-01-25T15:36:02;11.60;99.90
42617;DHT22;28250;52.320;0.360;2024-01-25T15:38:29;11.50;99.90
42617;DHT22;28250;52.320;0.360;2024-01-25T15:40:55;11.50;99.90